메인 페이지
METAR-TAF:

METAR-TAF

공항 :

다카르, 세네갈

레오폴 세다르 상고르 국제공항

위도: 14-44N, 경도: 017-30W, 고도: 27m

현재 날씨관측

예보는 53분 전, 05:00시(UTC)에 발표되었습니다.
2kt
온도 17°C
습도 94%
기압 1009 hPa
시정: 8000m

METAR: GOOY 200500Z 36002KT 8000 NSC 17/16 Q1009 NOSIG

시각: 05:53 (05:53 UTC)

예보

예보는 23분 전, 05:30시(UTC)에 발표되었습니다.
예보 대상 시간: 20일 06시부터 21일 12시까지 (UTC)
10kt
시정: 8000m

TAF: GOOY 200530Z 2006/2112 36010KT 8000 NSC

4,000개 이상의 공항 관측 자료 및 예보 (METAR 및 TAF 보고).

지도상에서 검색 가능한 기상관측소가 노란 점과 빨간 점으로 표시되어 있습니다.

기상관측소 명을 보려면 표시 위로 마우스를 이동하세요.

날씨 관측과 예보를 보려면 클릭하세요.

지도 변경 : 확대하려면 엑스 표시가 있는 녹색 버튼, 축소하려면 빼기 표시가 있는 녹색 버튼, 다음 페이지의 지도를 보려면 녹색 화살표를 클릭하세요.


METAR-TAF: